Terminal Aerodrome Forecast
Issued by NWS Tallahassee, FL

Current Version | Previous Version | Text Only | Print | Product List | Glossary On
Versions: 1 2 3 4 5 6 7 8 9 10 11 12 13 14 15 16 17 18 19 20 21 22 23 24 25
000
FTUS42 KTAE 201700
TAFTLH
TAF
KTLH 201720Z 2018/2118 02008KT P6SM BKN013
     FM202100 02007KT P6SM BKN020
     FM210000 05007KT P6SM SCT020 BKN050
     FM211200 04005KT P6SM FEW020 SCT050
     FM211500 03004KT P6SM SCT250=

USA.gov is the U.S. government's official web portal to all federal, state and local government web resources and services.